Time;durP1;ratioP1;P1;durP2;ratioP2;P2;SDS_P1;SDS_P2;PMS_P1;PMS_P2;Temp;Humidity;BMP_temperature;BMP_pressure;BME280_temperature;BME280_humidity;BME280_pressure;Samples;Min_cycle;Max_cycle;Signal;HPM_P1;HPM_P2
2021/12/16 00:08:38;;;;;;;35.90;22.65;;;11.80;85.00;;;;;;5074837;28;20453;-71
2021/12/16 00:19:19;;;;;;;34.47;21.95;;;11.80;85.00;;;;;;5071377;28;20361;-71
2021/12/16 00:33:19;;;;;;;36.60;22.75;;;11.80;85.00;;;;;;5075061;28;20400;-71
2021/12/16 00:35:47;;;;;;;;;;;11.80;85.00;;;;;;5073993;28;20403;-71
2021/12/16 00:38:13;;;;;;;36.78;21.73;;;11.80;84.90;;;;;;5074994;28;20014;-71
2021/12/16 00:40:42;;;;;;;37.50;23.17;;;11.70;85.00;;;;;;5056802;28;20055;-70
2021/12/16 00:43:18;;;;;;;38.97;22.70;;;11.70;85.00;;;;;;5074156;28;20036;-71
2021/12/16 00:48:47;;;;;;;40.80;23.55;;;11.70;85.00;;;;;;5073485;28;20054;-71
2021/12/16 00:54:12;;;;;;;39.58;23.13;;;11.70;85.00;;;;;;5074599;28;20086;-71
2021/12/16 00:56:53;;;;;;;;;;;11.70;85.00;;;;;;5051691;28;20021;-71
2021/12/16 00:59:20;;;;;;;39.88;22.58;;;11.70;85.00;;;;;;5067326;28;19908;-71
2021/12/16 01:01:56;;;;;;;37.70;22.65;;;11.70;85.10;;;;;;5073107;28;20024;-71
2021/12/16 01:05:01;;;;;;;40.47;23.65;;;11.70;85.10;;;;;;5073363;28;20070;-71
2021/12/16 01:35:29;;;;;;;39.67;22.63;;;11.70;85.20;;;;;;5073129;28;20033;-71
2021/12/16 01:38:35;;;;;;;35.00;23.13;;;11.60;85.10;;;;;;5072599;28;20357;-71
2021/12/16 01:54:47;;;;;;;41.13;26.13;;;11.60;85.10;;;;;;5073110;28;20415;-71
2021/12/16 01:57:24;;;;;;;39.88;24.20;;;11.60;85.80;;;;;;5053035;28;20021;-71
2021/12/16 02:00:01;;;;;;;43.38;25.48;;;11.60;85.20;;;;;;5073901;28;20024;-72
2021/12/16 02:02:41;;;;;;;42.63;24.55;;;11.60;85.20;;;;;;5059272;28;20167;-71
2021/12/16 02:05:27;;;;;;;41.05;24.80;;;11.60;85.20;;;;;;5076724;28;20028;-72
2021/12/16 02:10:35;;;;;;;41.90;25.85;;;11.60;85.30;;;;;;5076906;28;20361;-71
2021/12/16 02:32:05;;;;;;;37.50;24.48;;;11.60;85.30;;;;;;5075479;28;20044;-71
2021/12/16 02:37:19;;;;;;;40.42;24.75;;;11.60;85.30;;;;;;5076614;28;20147;-71
2021/12/16 02:39:48;;;;;;;40.50;25.30;;;11.60;85.30;;;;;;5076153;28;20028;-71
2021/12/16 02:42:21;;;;;;;38.95;24.08;;;11.60;85.30;;;;;;5075702;28;20032;-71
2021/12/16 02:50:25;;;;;;;33.92;22.33;;;11.60;85.20;;;;;;5077119;28;20032;-71
2021/12/16 02:52:51;;;;;;;36.72;23.75;;;11.60;85.30;;;;;;5058418;28;20060;-71
2021/12/16 02:55:20;;;;;;;40.10;24.25;;;11.50;85.20;;;;;;5075451;28;20556;-71
2021/12/16 02:58:00;;;;;;;40.45;24.17;;;11.50;85.20;;;;;;5074729;28;20024;-71
2021/12/16 03:00:28;;;;;;;43.72;24.38;;;11.50;85.20;;;;;;5075939;28;20063;-71
2021/12/16 03:02:54;;;;;;;42.50;23.80;;;11.50;85.20;;;;;;5076058;28;20026;-71
2021/12/16 03:05:21;;;;;;;36.85;23.98;;;11.50;85.20;;;;;;5075291;28;20032;-71
2021/12/16 03:07:48;;;;;;;42.22;25.45;;;11.50;85.20;;;;;;5057822;28;20040;-70
2021/12/16 03:20:50;;;;;;;34.63;23.15;;;11.50;85.20;;;;;;5044639;28;20021;-71
2021/12/16 03:23:31;;;;;;;41.20;22.98;;;11.40;85.20;;;;;;5075092;28;20043;-71
2021/12/16 03:26:34;;;;;;;37.78;22.45;;;11.40;85.20;;;;;;5058584;28;20032;-71
2021/12/16 03:39:38;;;;;;;38.55;22.73;;;11.40;85.20;;;;;;5054351;28;20481;-71
2021/12/16 03:42:05;;;;;;;43.63;24.13;;;11.40;85.30;;;;;;5054261;28;20403;-71
2021/12/16 03:44:48;;;;;;;39.00;23.52;;;11.40;85.20;;;;;;5046647;28;20057;-71
2021/12/16 03:47:16;;;;;;;39.60;23.45;;;11.40;85.90;;;;;;5019608;28;20499;-71
2021/12/16 03:49:42;;;;;;;43.80;23.80;;;11.40;85.30;;;;;;5023183;28;20029;-71
2021/12/16 03:52:09;;;;;;;34.75;22.38;;;11.50;85.30;;;;;;5026244;28;20051;-71
2021/12/16 03:54:49;;;;;;;35.45;21.35;;;11.50;85.30;;;;;;5034765;28;20025;-71
2021/12/16 03:57:20;;;;;;;38.75;23.33;;;11.50;85.40;;;;;;5034628;28;20469;-71
2021/12/16 03:59:47;;;;;;;42.85;21.98;;;11.50;85.40;;;;;;5047853;28;20319;-71
2021/12/16 04:02:29;;;;;;;35.03;21.13;;;11.40;85.30;;;;;;5045547;28;20029;-71
2021/12/16 04:04:57;;;;;;;40.33;21.77;;;11.50;85.40;;;;;;5032914;28;20032;-71
2021/12/16 04:07:28;;;;;;;31.45;21.30;;;11.50;85.40;;;;;;5037239;28;20422;-71
2021/12/16 04:10:26;;;;;;;33.38;21.40;;;11.50;85.30;;;;;;5034463;28;20056;-71
2021/12/16 04:12:52;;;;;;;40.88;22.27;;;11.40;85.30;;;;;;5033795;28;20044;-71
2021/12/16 04:15:18;;;;;;;42.67;23.60;;;11.40;85.30;;;;;;5073984;28;20087;-71
2021/12/16 04:17:49;;;;;;;41.40;24.27;;;11.40;85.30;;;;;;5074372;28;20339;-71
2021/12/16 04:20:15;;;;;;;39.30;22.98;;;11.40;85.30;;;;;;5053311;28;20040;-71
2021/12/16 04:22:44;;;;;;;40.33;21.98;;;11.40;85.30;;;;;;5054615;28;20025;-71
2021/12/16 04:25:18;;;;;;;38.63;23.27;;;11.40;85.40;;;;;;5073882;28;20507;-71
2021/12/16 04:27:49;;;;;;;38.05;22.55;;;11.40;85.40;;;;;;5074046;28;20030;-71
2021/12/16 04:30:17;;;;;;;38.53;22.65;;;11.40;85.40;;;;;;5073970;28;20106;-71
2021/12/16 04:32:45;;;;;;;39.25;23.55;;;11.40;85.40;;;;;;5054455;28;20029;-71
2021/12/16 04:35:11;;;;;;;34.63;20.48;;;11.40;85.40;;;;;;5073400;28;20027;-71
2021/12/16 04:37:38;;;;;;;39.88;21.27;;;11.40;85.40;;;;;;5057498;28;20051;-71
2021/12/16 04:40:07;;;;;;;40.00;22.27;;;11.40;85.40;;;;;;5056955;28;20437;-71
2021/12/16 04:42:36;;;;;;;35.47;21.38;;;11.40;85.40;;;;;;5057484;28;20461;-71
2021/12/16 04:45:03;;;;;;;40.10;23.48;;;11.40;85.50;;;;;;5056605;28;20446;-71
2021/12/16 04:47:30;;;;;;;42.22;22.17;;;11.40;85.50;;;;;;5073978;28;20032;-71
2021/12/16 04:49:55;;;;;;;43.53;23.20;;;11.40;85.50;;;;;;5073493;28;20027;-71
2021/12/16 04:52:21;;;;;;;40.70;23.25;;;11.30;85.50;;;;;;5056617;28;20334;-71
2021/12/16 04:54:47;;;;;;;37.10;22.42;;;11.30;85.60;;;;;;5053359;28;20029;-71
2021/12/16 04:57:13;;;;;;;42.88;22.25;;;11.30;85.60;;;;;;5066208;28;20082;-71
2021/12/16 04:59:43;;;;;;;40.25;23.35;;;11.30;85.70;;;;;;5073450;28;20495;-71
2021/12/16 05:02:13;;;;;;;39.72;21.63;;;11.30;85.70;;;;;;5073689;28;20111;-71
2021/12/16 05:05:03;;;;;;;38.42;21.70;;;11.30;85.80;;;;;;5071331;28;20048;-71
2021/12/16 05:07:29;;;;;;;40.00;22.60;;;11.30;86.40;;;;;;5073466;28;20036;-71
2021/12/16 05:10:16;;;;;;;39.35;23.60;;;11.30;85.70;;;;;;5074312;28;20043;-71
2021/12/16 05:12:53;;;;;;;37.75;22.10;;;11.30;85.70;;;;;;5045032;28;20384;-71
2021/12/16 05:15:29;;;;;;;38.92;21.48;;;11.30;85.70;;;;;;5069330;28;20115;-71
2021/12/16 05:17:58;;;;;;;41.40;21.67;;;11.30;85.80;;;;;;5056968;28;20024;-71
2021/12/16 05:20:33;;;;;;;44.33;23.05;;;11.30;85.80;;;;;;5053057;28;20025;-71
2021/12/16 05:28:30;;;;;;;36.13;22.25;;;11.30;85.80;;;;;;5073266;28;20040;-71
2021/12/16 05:30:57;;;;;;;40.97;21.73;;;11.30;85.80;;;;;;5072613;28;20032;-71
2021/12/16 05:33:25;;;;;;;42.10;21.52;;;11.30;85.80;;;;;;5072999;28;20114;-71
2021/12/16 05:35:52;;;;;;;35.70;20.73;;;11.30;85.80;;;;;;5072950;28;20453;-71
2021/12/16 05:38:20;;;;;;;35.85;20.00;;;11.30;85.80;;;;;;5073338;28;20024;-71
2021/12/16 05:40:46;;;;;;;35.58;18.40;;;11.30;85.80;;;;;;5072535;28;20016;-71
2021/12/16 05:43:32;;;;;;;35.58;20.27;;;11.30;85.80;;;;;;5073590;28;20036;-71
2021/12/16 05:45:59;;;;;;;33.60;19.52;;;11.30;85.90;;;;;;5072768;28;20060;-71
2021/12/16 05:48:29;;;;;;;35.20;19.88;;;11.30;85.80;;;;;;5056143;28;20529;-71
2021/12/16 05:51:00;;;;;;;34.42;19.17;;;11.30;85.80;;;;;;5052702;28;20021;-71
2021/12/16 05:53:26;;;;;;;36.83;21.02;;;11.30;85.70;;;;;;5069770;28;20024;-71
2021/12/16 05:55:53;;;;;;;38.55;20.15;;;11.30;85.70;;;;;;5072966;28;20460;-71
2021/12/16 05:58:28;;;;;;;36.58;19.30;;;11.30;85.70;;;;;;5072807;28;20040;-71
2021/12/16 06:01:01;;;;;;;31.00;17.98;;;11.30;85.80;;;;;;5069089;28;20028;-71
2021/12/16 06:03:29;;;;;;;35.72;21.30;;;11.30;85.90;;;;;;5055908;28;20098;-71
2021/12/16 06:05:56;;;;;;;30.85;18.23;;;11.30;85.90;;;;;;5072454;28;20111;-71
2021/12/16 06:08:22;;;;;;;36.60;19.58;;;11.30;85.80;;;;;;5072508;28;20021;-71
2021/12/16 06:13:38;;;;;;;35.30;20.13;;;11.30;85.90;;;;;;5070050;28;20032;-71
2021/12/16 06:27:36;;;;;;;33.03;18.80;;;11.20;85.80;;;;;;5072353;28;20115;-69
2021/12/16 06:29:55;;;;;;;;;;;11.20;85.80;;;;;;5069659;28;20040;-69
2021/12/16 06:32:21;;;;;;;28.88;15.32;;;11.20;85.90;;;;;;5071214;28;19912;-72
2021/12/16 06:34:47;;;;;;;26.65;15.93;;;11.10;85.90;;;;;;5071431;28;20119;-72
2021/12/16 06:37:14;;;;;;;27.33;17.35;;;11.10;85.90;;;;;;5073733;28;20052;-72
2021/12/16 06:39:40;;;;;;;33.65;17.83;;;11.10;85.90;;;;;;5072391;28;20035;-72
2021/12/16 06:42:22;;;;;;;31.00;17.23;;;11.10;85.90;;;;;;5059340;28;20098;-72
2021/12/16 06:45:04;;;;;;;29.05;17.23;;;11.10;85.90;;;;;;5076081;28;20346;-72
2021/12/16 06:47:40;;;;;;;28.67;16.17;;;11.10;86.00;;;;;;5059568;28;20033;-72
2021/12/16 06:50:07;;;;;;;32.20;18.50;;;11.10;86.00;;;;;;5075885;28;20020;-72
2021/12/16 06:52:39;;;;;;;33.63;19.55;;;11.10;86.00;;;;;;5076611;28;20039;-72
2021/12/16 06:55:20;;;;;;;30.00;17.52;;;11.10;86.10;;;;;;5076138;28;20064;-72
2021/12/16 06:57:53;;;;;;;30.70;17.50;;;11.10;86.00;;;;;;5076578;28;20078;-72
2021/12/16 07:00:31;;;;;;;32.28;17.95;;;11.10;86.00;;;;;;5058729;28;20086;-72
2021/12/16 07:03:00;;;;;;;29.83;15.98;;;11.10;86.00;;;;;;5077101;28;20035;-72
2021/12/16 07:05:33;;;;;;;30.63;16.83;;;11.10;86.10;;;;;;5075627;28;20417;-72
2021/12/16 07:08:00;;;;;;;30.85;17.58;;;11.10;86.10;;;;;;5076271;28;20031;-72
2021/12/16 07:10:29;;;;;;;30.80;17.05;;;11.10;86.10;;;;;;5075284;28;20374;-72
2021/12/16 07:12:57;;;;;;;30.50;16.80;;;11.10;86.10;;;;;;5076092;28;20028;-72
2021/12/16 07:15:29;;;;;;;28.88;17.23;;;11.10;86.10;;;;;;5076143;28;20035;-72
2021/12/16 07:17:56;;;;;;;31.38;18.02;;;11.10;86.10;;;;;;5059475;28;20090;-72
2021/12/16 07:20:27;;;;;;;34.25;18.85;;;11.10;86.20;;;;;;5075460;28;20419;-72
2021/12/16 07:22:53;;;;;;;31.98;17.83;;;11.10;86.20;;;;;;5075839;28;20032;-74
2021/12/16 07:25:19;;;;;;;27.23;16.95;;;11.10;86.20;;;;;;5057124;28;20025;-73
2021/12/16 07:27:45;;;;;;;28.17;15.85;;;11.10;86.20;;;;;;5058366;28;20024;-75
2021/12/16 07:30:15;;;;;;;29.10;15.98;;;11.10;86.20;;;;;;5076530;28;20080;-75
2021/12/16 07:32:41;;;;;;;29.35;16.13;;;11.10;86.10;;;;;;5054890;28;20048;-72
2021/12/16 07:35:10;;;;;;;29.15;16.15;;;11.10;86.10;;;;;;5055615;28;20033;-72
2021/12/16 07:37:38;;;;;;;34.10;19.73;;;11.10;86.00;;;;;;5075069;28;20028;-71
2021/12/16 07:40:07;;;;;;;29.45;17.95;;;11.20;86.10;;;;;;5074797;28;20437;-71
2021/12/16 07:43:22;;;;;;;29.73;17.27;;;11.20;86.00;;;;;;5075095;28;20036;-71
2021/12/16 07:45:32;;;;;;;25.50;15.23;;;11.20;86.00;;;;;;5071830;28;20125;-70
2021/12/16 07:47:58;;;;;;;27.10;14.68;;;11.20;86.00;;;;;;5075284;28;20444;-71
2021/12/16 07:50:25;;;;;;;28.40;16.00;;;11.20;86.00;;;;;;5075202;28;20066;-70
2021/12/16 07:52:51;;;;;;;31.08;17.30;;;11.20;86.00;;;;;;5076168;28;20024;-70
2021/12/16 07:55:17;;;;;;;29.95;18.33;;;11.20;85.90;;;;;;5074651;28;20113;-70
2021/12/16 07:57:44;;;;;;;28.08;15.98;;;11.20;86.00;;;;;;5074876;28;20032;-70
2021/12/16 08:00:21;;;;;;;27.13;16.45;;;11.20;86.10;;;;;;5075211;28;20033;-70
2021/12/16 08:02:47;;;;;;;30.02;16.45;;;11.20;86.00;;;;;;5058246;28;20070;-70
2021/12/16 08:05:15;;;;;;;26.83;15.52;;;11.10;86.00;;;;;;5075522;28;20025;-70
2021/12/16 08:07:43;;;;;;;27.73;16.27;;;11.20;86.10;;;;;;5074507;28;20027;-70
2021/12/16 08:10:13;;;;;;;29.85;16.48;;;11.20;86.00;;;;;;5057203;28;20037;-71
2021/12/16 08:12:39;;;;;;;29.23;16.63;;;11.20;86.00;;;;;;5069576;28;20067;-71
2021/12/16 08:15:06;;;;;;;26.63;16.02;;;11.10;85.90;;;;;;5069490;28;20397;-73
2021/12/16 08:17:32;;;;;;;27.27;16.25;;;11.10;85.90;;;;;;5075420;28;20024;-74
2021/12/16 08:19:58;;;;;;;26.27;15.07;;;11.10;85.90;;;;;;5057971;28;20035;-74
2021/12/16 08:22:24;;;;;;;29.45;18.08;;;11.20;86.00;;;;;;5054300;28;20080;-72
2021/12/16 08:24:50;;;;;;;30.45;17.08;;;11.10;86.00;;;;;;5057192;28;20025;-73
2021/12/16 08:27:16;;;;;;;25.02;15.43;;;11.10;86.00;;;;;;5074372;28;20078;-73
2021/12/16 08:29:43;;;;;;;25.80;15.63;;;11.20;86.00;;;;;;5075698;28;20051;-74
2021/12/16 08:32:10;;;;;;;27.00;16.33;;;11.20;85.90;;;;;;5074773;28;20043;-73
2021/12/16 08:34:38;;;;;;;25.75;15.90;;;11.20;85.90;;;;;;5057970;28;20147;-73
2021/12/16 08:37:07;;;;;;;28.08;17.13;;;11.20;85.90;;;;;;5073800;28;20036;-73
2021/12/16 08:39:34;;;;;;;28.60;16.35;;;11.20;85.90;;;;;;5075088;28;20135;-72
2021/12/16 08:42:01;;;;;;;26.85;16.20;;;11.20;85.90;;;;;;5074664;28;20031;-72
2021/12/16 08:44:28;;;;;;;27.00;16.73;;;11.20;86.00;;;;;;5056604;28;20032;-71
2021/12/16 08:46:59;;;;;;;28.42;16.23;;;11.20;85.90;;;;;;5053934;28;20067;-69
2021/12/16 08:49:26;;;;;;;26.63;16.48;;;11.20;85.90;;;;;;5074368;28;20033;-70
2021/12/16 08:51:57;;;;;;;25.17;14.80;;;11.20;85.90;;;;;;5073575;28;20469;-71
2021/12/16 08:54:23;;;;;;;26.98;14.95;;;11.20;85.90;;;;;;5074364;28;20032;-71
2021/12/16 08:56:49;;;;;;;25.92;15.38;;;11.20;85.90;;;;;;5072935;28;20035;-71
2021/12/16 08:59:15;;;;;;;24.33;14.07;;;11.20;86.50;;;;;;5073954;28;20028;-71
2021/12/16 09:01:45;;;;;;;27.88;15.80;;;11.20;85.70;;;;;;5073417;28;20027;-70
2021/12/16 09:04:11;;;;;;;30.48;16.17;;;11.20;85.80;;;;;;5073677;28;20090;-72
2021/12/16 09:06:37;;;;;;;27.23;14.63;;;11.20;85.80;;;;;;5072797;28;20168;-72
2021/12/16 09:09:06;;;;;;;24.23;14.27;;;11.20;85.80;;;;;;5074312;28;20079;-72
2021/12/16 09:11:37;;;;;;;29.73;15.63;;;11.20;85.80;;;;;;5057356;28;20028;-71
2021/12/16 09:14:03;;;;;;;25.52;15.25;;;11.20;85.80;;;;;;5073109;28;20025;-72
2021/12/16 09:16:32;;;;;;;22.38;12.77;;;11.20;85.80;;;;;;5074970;28;20093;-71
2021/12/16 09:18:58;;;;;;;26.67;14.23;;;11.20;85.80;;;;;;5074191;28;20032;-71
2021/12/16 09:21:28;;;;;;;23.17;12.85;;;11.20;85.80;;;;;;5073314;28;20526;-71
2021/12/16 09:23:55;;;;;;;28.50;14.88;;;11.20;85.80;;;;;;5073504;28;20066;-71
2021/12/16 09:26:22;;;;;;;23.52;13.55;;;11.20;85.80;;;;;;5056660;28;20024;-71
2021/12/16 09:28:48;;;;;;;23.17;14.27;;;11.20;85.80;;;;;;5074223;28;20060;-71
2021/12/16 09:31:17;;;;;;;23.80;14.25;;;11.20;85.80;;;;;;5073487;28;20032;-72
2021/12/16 09:33:48;;;;;;;21.40;12.93;;;11.20;85.80;;;;;;5056686;28;20472;-72
2021/12/16 09:36:16;;;;;;;27.25;15.52;;;11.20;85.90;;;;;;5074342;28;20040;-72
2021/12/16 09:38:43;;;;;;;21.58;13.95;;;11.20;85.90;;;;;;5073275;28;20082;-71
2021/12/16 09:41:09;;;;;;;27.02;15.02;;;11.20;85.90;;;;;;5074498;28;20059;-70
2021/12/16 09:43:39;;;;;;;24.95;13.38;;;11.20;85.90;;;;;;5056792;28;20070;-71
2021/12/16 09:46:09;;;;;;;24.55;14.13;;;11.20;85.90;;;;;;5056656;28;20429;-72
2021/12/16 09:48:36;;;;;;;22.88;13.23;;;11.20;85.90;;;;;;5073031;28;20085;-72
2021/12/16 09:51:05;;;;;;;26.65;14.55;;;11.20;85.90;;;;;;5074112;28;20437;-71
2021/12/16 09:53:33;;;;;;;25.27;14.27;;;11.20;85.90;;;;;;5073499;28;20032;-71
2021/12/16 09:56:01;;;;;;;21.83;12.07;;;11.20;85.90;;;;;;5073620;28;20408;-71
2021/12/16 09:58:35;;;;;;;25.52;13.75;;;11.20;85.90;;;;;;5057123;28;20035;-72
2021/12/16 10:01:01;;;;;;;23.30;14.02;;;11.30;85.90;;;;;;5074040;28;20107;-72
2021/12/16 10:03:28;;;;;;;24.90;14.93;;;11.20;85.80;;;;;;5074376;28;20454;-72
2021/12/16 10:05:55;;;;;;;24.98;14.18;;;11.20;85.80;;;;;;5057040;28;20028;-72
2021/12/16 10:08:21;;;;;;;25.55;13.95;;;11.20;85.80;;;;;;5073501;28;20060;-71
2021/12/16 10:10:47;;;;;;;29.75;14.65;;;11.20;85.80;;;;;;5073837;28;20486;-72
2021/12/16 10:13:20;;;;;;;25.08;13.70;;;11.20;85.80;;;;;;5073580;28;20128;-71
2021/12/16 10:18:20;;;;;;;24.40;14.20;;;11.20;85.90;;;;;;5077282;28;20470;-72
2021/12/16 10:20:56;;;;;;;24.23;15.25;;;11.20;85.80;;;;;;5078706;28;20120;-71
2021/12/16 10:23:29;;;;;;;22.60;13.73;;;11.20;85.80;;;;;;5077333;28;20365;-71
2021/12/16 10:26:04;;;;;;;24.65;13.38;;;11.20;85.80;;;;;;5076615;28;20033;-71
2021/12/16 10:28:33;;;;;;;24.75;14.38;;;11.30;85.80;;;;;;5060431;28;20135;-71
2021/12/16 10:31:05;;;;;;;28.23;15.35;;;11.30;85.80;;;;;;5077375;28;20044;-71
2021/12/16 10:33:40;;;;;;;21.95;13.02;;;11.30;85.70;;;;;;5078114;28;20173;-71
2021/12/16 10:36:17;;;;;;;24.50;14.23;;;11.30;85.70;;;;;;5077245;28;20456;-71
2021/12/16 10:38:48;;;;;;;24.70;13.32;;;11.30;85.60;;;;;;5076643;28;20032;-71
2021/12/16 10:41:26;;;;;;;23.27;13.68;;;11.30;85.70;;;;;;5076800;28;20032;-70
2021/12/16 10:43:55;;;;;;;22.80;11.93;;;11.30;85.70;;;;;;5077940;28;20035;-71
2021/12/16 10:46:25;;;;;;;24.80;13.38;;;11.30;85.70;;;;;;5059668;28;20087;-71
2021/12/16 10:48:56;;;;;;;29.30;15.65;;;11.30;85.70;;;;;;5076519;28;20029;-71
2021/12/16 10:51:46;;;;;;;23.52;12.90;;;11.40;85.70;;;;;;5076631;28;20035;-71
2021/12/16 10:54:25;;;;;;;23.67;13.30;;;11.40;85.60;;;;;;5077246;28;20029;-71
2021/12/16 10:57:03;;;;;;;22.85;13.23;;;11.40;85.60;;;;;;5076539;28;20319;-71
2021/12/16 10:59:34;;;;;;;28.80;15.18;;;11.40;85.50;;;;;;5077249;28;20024;-71
2021/12/16 11:02:03;;;;;;;28.03;15.13;;;11.40;85.50;;;;;;5056095;28;20035;-72
2021/12/16 11:04:42;;;;;;;27.48;14.80;;;11.50;85.60;;;;;;5056367;28;20055;-71
2021/12/16 11:07:19;;;;;;;24.50;13.50;;;11.50;85.60;;;;;;5072664;28;20033;-71
2021/12/16 11:09:56;;;;;;;27.33;14.75;;;11.50;85.50;;;;;;5076242;28;20365;-70
2021/12/16 11:12:47;;;;;;;27.88;15.23;;;11.50;85.50;;;;;;5055684;28;20032;-70
2021/12/16 11:15:29;;;;;;;26.33;13.38;;;11.50;85.50;;;;;;5056204;28;20032;-71
2021/12/16 11:18:06;;;;;;;24.50;12.45;;;11.50;85.50;;;;;;5077166;28;20025;-71
2021/12/16 11:20:49;;;;;;;24.90;12.90;;;11.50;85.40;;;;;;5075909;28;20021;-71
2021/12/16 11:23:30;;;;;;;23.95;14.30;;;11.40;85.30;;;;;;5076867;28;20053;-71
2021/12/16 11:25:59;;;;;;;23.35;12.93;;;11.40;85.40;;;;;;5076490;28;20422;-72
2021/12/16 11:28:24;;;;;;;24.30;12.05;;;11.40;85.30;;;;;;5075321;28;20453;-73
2021/12/16 11:30:58;;;;;;;24.05;13.50;;;11.40;85.30;;;;;;5075374;28;20050;-69
2021/12/16 11:33:28;;;;;;;26.25;14.88;;;11.50;85.30;;;;;;5070315;28;20043;-72
2021/12/16 11:36:20;;;;;;;28.27;15.10;;;11.40;85.20;;;;;;5075870;28;20020;-70
2021/12/16 11:39:01;;;;;;;25.60;15.32;;;11.50;85.20;;;;;;5073929;28;20036;-72
2021/12/16 11:41:32;;;;;;;24.00;12.90;;;11.40;85.90;;;;;;5076062;28;20052;-72
2021/12/16 11:44:16;;;;;;;22.35;13.27;;;11.40;85.20;;;;;;5073247;28;20118;-72
2021/12/16 11:46:48;;;;;;;24.08;13.73;;;11.40;85.20;;;;;;5076106;28;20037;-72
2021/12/16 11:49:16;;;;;;;;;;;11.40;85.20;;;;;;5059696;28;20043;-71
2021/12/16 11:51:46;;;;;;;20.20;10.73;;;11.40;85.10;;;;;;5075051;28;19909;-71
2021/12/16 11:54:37;;;;;;;21.23;12.57;;;11.40;85.20;;;;;;5075569;28;20024;-71
2021/12/16 11:57:23;;;;;;;24.85;13.95;;;11.40;85.20;;;;;;5056907;28;20032;-72
2021/12/16 12:00:12;;;;;;;23.48;12.40;;;11.40;85.20;;;;;;5058850;28;20033;-71
2021/12/16 12:02:48;;;;;;;22.58;12.93;;;11.30;85.20;;;;;;5068869;28;20453;-71
2021/12/16 12:05:37;;;;;;;21.73;11.90;;;11.30;85.20;;;;;;5076691;28;20464;-71
2021/12/16 12:08:06;;;;;;;19.90;11.02;;;11.40;85.10;;;;;;5057647;28;20383;-70
2021/12/16 12:10:47;;;;;;;18.55;11.07;;;11.40;85.20;;;;;;5071224;28;20039;-70
2021/12/16 12:13:26;;;;;;;20.88;11.60;;;11.40;85.00;;;;;;5058051;28;20139;-70
2021/12/16 12:16:07;;;;;;;20.05;11.70;;;11.40;84.90;;;;;;5068149;28;20043;-70
2021/12/16 12:18:34;;;;;;;24.83;11.40;;;11.30;84.90;;;;;;5072440;28;20036;-70
2021/12/16 12:21:18;;;;;;;19.67;10.63;;;11.20;85.00;;;;;;5061202;28;20024;-70
2021/12/16 12:23:46;;;;;;;22.45;12.15;;;11.30;85.00;;;;;;5073690;28;20108;-71
2021/12/16 12:26:16;;;;;;;21.10;12.60;;;11.30;85.00;;;;;;5074346;28;20338;-71
2021/12/16 12:28:44;;;;;;;20.80;11.38;;;11.20;85.00;;;;;;5073944;28;20101;-71
2021/12/16 12:31:10;;;;;;;18.48;11.93;;;11.20;84.90;;;;;;5075121;28;20089;-70
2021/12/16 12:33:36;;;;;;;16.83;10.35;;;11.20;84.90;;;;;;5056498;28;20360;-71
2021/12/16 12:36:02;;;;;;;21.20;12.15;;;11.20;84.90;;;;;;5074035;28;20029;-71
2021/12/16 12:38:29;;;;;;;19.33;11.57;;;11.30;85.00;;;;;;5074384;28;20040;-71
2021/12/16 12:40:55;;;;;;;20.38;11.43;;;11.20;84.90;;;;;;5073195;28;20027;-71
2021/12/16 12:43:22;;;;;;;17.45;10.85;;;11.20;84.90;;;;;;5054564;28;20502;-70
2021/12/16 12:45:49;;;;;;;17.98;11.07;;;11.20;84.90;;;;;;5070708;28;20028;-70
2021/12/16 12:48:18;;;;;;;19.67;11.55;;;11.30;84.90;;;;;;5053124;28;20338;-72
2021/12/16 12:50:47;;;;;;;18.35;11.30;;;11.30;84.90;;;;;;5070549;28;20041;-72
2021/12/16 12:53:32;;;;;;;17.85;11.02;;;11.20;84.80;;;;;;5073552;28;20026;-72
2021/12/16 12:56:19;;;;;;;23.75;11.70;;;11.20;84.80;;;;;;5073703;28;20040;-72
2021/12/16 12:58:53;;;;;;;17.48;10.52;;;11.30;84.80;;;;;;5053757;28;20025;-72
2021/12/16 13:01:36;;;;;;;17.75;10.68;;;11.20;84.80;;;;;;5037653;28;20035;-72
2021/12/16 13:04:12;;;;;;;18.40;11.40;;;11.30;84.70;;;;;;5072781;28;20025;-71
2021/12/16 13:06:53;;;;;;;17.80;10.95;;;11.20;84.70;;;;;;5056840;28;20036;-70
2021/12/16 13:09:36;;;;;;;19.08;11.13;;;11.20;84.70;;;;;;5073952;28;20036;-70
2021/12/16 13:12:28;;;;;;;18.65;11.55;;;11.20;84.70;;;;;;5073637;28;20025;-72
2021/12/16 13:15:04;;;;;;;19.15;11.10;;;11.20;84.80;;;;;;5055961;28;20040;-72
2021/12/16 13:23:22;;;;;;;19.77;11.60;;;11.20;84.90;;;;;;5056676;28;20468;-72
2021/12/16 13:23:35;;;;;;;19.65;11.70;;;11.20;84.80;;;;;;5075012;28;20028;-72
2021/12/16 13:28:59;;;;;;;20.65;13.35;;;11.20;84.80;;;;;;5073675;28;20048;-72
2021/12/16 13:31:52;;;;;;;22.23;11.77;;;11.20;84.80;;;;;;5074207;28;20108;-72
2021/12/16 13:34:33;;;;;;;21.17;12.88;;;11.20;84.80;;;;;;5074486;28;20036;-72
2021/12/16 13:37:20;;;;;;;22.73;13.43;;;11.20;84.90;;;;;;5074808;28;20031;-70
2021/12/16 13:39:50;;;;;;;20.10;12.00;;;11.20;84.90;;;;;;5073424;28;20043;-72
2021/12/16 13:42:19;;;;;;;20.23;12.13;;;11.20;84.80;;;;;;5071187;28;20073;-72
2021/12/16 13:44:54;;;;;;;22.00;13.02;;;11.20;84.80;;;;;;5060083;28;20032;-72
2021/12/16 14:01:37;;;;;;;20.98;13.18;;;11.10;85.00;;;;;;5077168;28;20024;-69
2021/12/16 14:04:54;;;;;;;22.17;12.57;;;11.10;85.00;;;;;;5074604;28;20075;-69
2021/12/16 14:07:28;;;;;;;23.17;13.00;;;11.10;85.00;;;;;;5073976;28;20032;-69
2021/12/16 14:10:12;;;;;;;22.00;12.50;;;11.10;85.10;;;;;;5075420;28;20060;-69
2021/12/16 14:17:49;;;;;;;25.23;13.88;;;11.10;85.00;;;;;;5077005;28;20020;-69
2021/12/16 14:23:12;;;;;;;21.20;12.88;;;11.10;85.00;;;;;;5076688;28;20036;-70
2021/12/16 14:26:13;;;;;;;23.88;13.77;;;11.10;85.00;;;;;;5075828;28;20071;-70
2021/12/16 14:45:27;;;;;;;21.25;12.02;;;11.00;85.00;;;;;;5075504;28;20166;-69
2021/12/16 14:48:26;;;;;;;24.83;14.07;;;11.00;85.10;;;;;;5057700;28;20021;-70
2021/12/16 14:51:10;;;;;;;23.25;14.45;;;11.00;85.20;;;;;;5075384;28;20113;-69
2021/12/16 14:53:40;;;;;;;24.70;13.90;;;11.00;85.20;;;;;;5076176;28;20047;-70
2021/12/16 14:56:09;;;;;;;24.05;14.00;;;11.00;85.30;;;;;;5075923;28;20031;-70
2021/12/16 14:58:36;;;;;;;23.00;13.45;;;11.00;85.30;;;;;;5048781;28;20020;-70
2021/12/16 15:01:15;;;;;;;22.55;13.90;;;10.90;85.30;;;;;;5076951;28;20032;-70
2021/12/16 15:03:43;;;;;;;21.45;12.20;;;11.00;85.40;;;;;;5058266;28;20447;-70
2021/12/16 15:06:22;;;;;;;26.00;13.98;;;11.00;85.40;;;;;;5075884;28;20039;-70
2021/12/16 15:09:09;;;;;;;22.20;13.70;;;11.00;85.30;;;;;;5086757;28;20377;-70
2021/12/16 15:11:57;;;;;;;22.65;12.63;;;11.00;85.30;;;;;;5071635;28;20063;-70
2021/12/16 15:37:11;;;;;;;26.65;14.73;;;10.90;85.30;;;;;;5074808;28;20036;-70
2021/12/16 15:45:11;;;;;;;27.17;12.95;;;10.90;85.50;;;;;;5068182;28;20025;-70
2021/12/16 15:47:39;;;;;;;24.07;13.37;;;10.90;85.50;;;;;;5056657;28;20020;-70
2021/12/16 15:50:06;;;;;;;25.45;14.75;;;11.00;85.50;;;;;;5067876;28;20282;-69
2021/12/16 15:52:45;;;;;;;28.67;15.40;;;11.00;85.60;;;;;;5075302;28;20466;-70
2021/12/16 15:55:19;;;;;;;26.75;14.90;;;11.00;85.60;;;;;;5057974;28;20077;-70
2021/12/16 15:57:45;;;;;;;24.98;14.73;;;11.00;85.60;;;;;;5070458;28;20039;-70
2021/12/16 16:00:16;;;;;;;25.95;14.88;;;11.00;85.50;;;;;;5075163;28;20021;-70
2021/12/16 16:02:42;;;;;;;29.55;16.05;;;11.00;85.50;;;;;;5058278;28;20024;-70
2021/12/16 16:05:09;;;;;;;27.63;15.32;;;11.00;85.60;;;;;;5074609;28;20189;-70
2021/12/16 16:07:37;;;;;;;28.55;15.57;;;11.00;85.60;;;;;;5074823;28;20093;-70
2021/12/16 16:10:05;;;;;;;25.50;14.68;;;11.00;85.60;;;;;;5074924;28;20044;-70
2021/12/16 16:12:33;;;;;;;30.17;15.85;;;11.00;85.60;;;;;;5074808;28;20093;-69
2021/12/16 16:15:16;;;;;;;27.15;15.20;;;11.00;85.60;;;;;;5074958;28;20036;-70
2021/12/16 16:18:11;;;;;;;29.27;15.60;;;11.00;85.60;;;;;;5058351;28;20032;-70
2021/12/16 16:20:38;;;;;;;26.38;14.90;;;11.00;85.70;;;;;;5057363;28;20024;-70
2021/12/16 16:23:07;;;;;;;28.65;15.57;;;11.00;85.60;;;;;;5057871;28;20028;-69
2021/12/16 16:25:33;;;;;;;26.35;15.48;;;11.00;85.60;;;;;;5074498;28;20060;-70
2021/12/16 16:28:02;;;;;;;25.05;14.23;;;11.00;85.60;;;;;;5074245;28;20056;-69
2021/12/16 16:30:29;;;;;;;27.02;14.82;;;11.00;85.60;;;;;;5071978;28;20040;-70
2021/12/16 16:33:12;;;;;;;25.48;14.68;;;11.10;85.70;;;;;;5046917;28;20127;-71
2021/12/16 16:35:45;;;;;;;23.83;14.90;;;11.10;85.60;;;;;;5048529;28;20067;-71